»·PEaware :: N333ZA KTIW-KGEG

N333ZA :: KTIW-KGEG

FLIGHT INFORMATION

Flight Status: Arrived
Operator: Privately registered:
United States
More flights under this callsign
Pilot: Judd H. (29974)
Aircraft: CESSNA 210 CENTURION
(C210)
More flights by this aircraft type
Origin: KTIW Tacoma Narrows
United States
Destination: KGEG Spokane Intl
United States
More flights between these airports :: More routes between these airports
Route: +NARROWS1 SEA V2 GEG
File this flight plan on PilotEdge
Remarks:
Altitude:
(Current/Filed)
15,000ft
Speed:
(Current/Filed)
150kts
Departed: 17-Nov-20 12:33 PM
Arrived: 17-Nov-20 01:53 PM
Distance/Time
Traveled:
206nm/1:20
Distance/Time
To Go:
Arrived

Flight Plot

Page will automatically refresh every two minutes.

Flight plan parsing failed; only flown route is shown


Map Options




Map Legend


Flown Route
Filed Route
Departure Airport
Arrival Airport
Navaid (VOR, NDB)
Fix

Horizontal Profiles

Position Reports

Time Latitude Longitude Heading Altitude Ground
Speed
17-Nov-20 12:11 47.269033 -122.575317 5 295ft 0kts
17-Nov-20 12:12 47.269033 -122.575317 5 295ft 0kts
17-Nov-20 12:12 47.269033 -122.575317 5 295ft 0kts
17-Nov-20 12:14 47.269033 -122.575317 5 295ft 0kts
17-Nov-20 12:14 47.269033 -122.575317 5 295ft 0kts
17-Nov-20 12:16 47.269033 -122.575317 5 295ft 0kts
17-Nov-20 12:16 47.269033 -122.575317 5 295ft 0kts
17-Nov-20 12:18 47.269033 -122.575317 5 295ft 0kts
17-Nov-20 12:18 47.269033 -122.575317 5 295ft 0kts
17-Nov-20 12:19 47.269033 -122.575317 5 295ft 0kts
17-Nov-20 12:20 47.269033 -122.575317 5 295ft 0kts
17-Nov-20 12:21 47.269033 -122.575317 5 295ft 0kts
17-Nov-20 12:22 47.269033 -122.575317 5 295ft 0kts
17-Nov-20 12:23 47.269033 -122.575317 5 295ft 0kts
17-Nov-20 12:24 47.269033 -122.575317 5 295ft 0kts
17-Nov-20 12:25 47.269033 -122.575317 5 295ft 0kts
17-Nov-20 12:26 47.269033 -122.575317 5 295ft 0kts
17-Nov-20 12:27 47.269033 -122.575317 5 295ft 0kts
17-Nov-20 12:28 47.270717 -122.575294 11 295ft 10kts
17-Nov-20 12:29 47.274284 -122.574624 2 295ft 8kts
17-Nov-20 12:30 47.274621 -122.575843 271 295ft 0kts
17-Nov-20 12:31 47.274625 -122.575970 273 295ft 6kts
17-Nov-20 12:32 47.272193 -122.577348 189 296ft 58kts
17-Nov-20 12:33 47.245699 -122.585622 197 1295ft 118kts
17-Nov-20 12:34 47.235067 -122.624622 263 2830ft 133kts
17-Nov-20 12:35 47.237179 -122.674828 265 4170ft 120kts
17-Nov-20 12:36 47.249470 -122.719618 331 5388ft 142kts
17-Nov-20 12:37 47.287446 -122.696588 37 6374ft 158kts
17-Nov-20 12:38 47.317234 -122.650032 67 7433ft 166kts
17-Nov-20 12:39 47.338179 -122.590178 63 8523ft 166kts
17-Nov-20 12:40 47.360210 -122.529477 63 9521ft 169kts
17-Nov-20 12:41 47.377677 -122.480251 66 10332ft 169kts
17-Nov-20 12:42 47.400415 -122.419457 66 11322ft 169kts
17-Nov-20 12:43 47.421625 -122.357345 72 12329ft 169kts
17-Nov-20 12:44 47.431199 -122.292226 105 13348ft 157kts
17-Nov-20 12:45 47.420591 -122.230568 118 14355ft 154kts
17-Nov-20 12:46 47.404783 -122.170589 121 15033ft 175kts
17-Nov-20 12:47 47.383658 -122.095048 110 14389ft 214kts
17-Nov-20 12:48 47.368189 -122.011568 112 14113ft 203kts
17-Nov-20 12:49 47.352775 -121.931706 112 14042ft 201kts
17-Nov-20 12:50 47.338068 -121.853351 112 14049ft 197kts
17-Nov-20 12:51 47.323197 -121.779827 117 14631ft 177kts
17-Nov-20 12:52 47.307540 -121.711031 116 15070ft 185kts
17-Nov-20 12:53 47.289939 -121.636123 116 14946ft 199kts
17-Nov-20 12:54 47.272977 -121.564353 109 14927ft 193kts
17-Nov-20 12:55 47.252005 -121.495693 112 15415ft 181kts
17-Nov-20 12:56 47.233394 -121.424247 109 15420ft 191kts
17-Nov-20 12:57 47.216507 -121.349579 107 15419ft 192kts
17-Nov-20 12:58 47.200117 -121.274343 105 15419ft 193kts
17-Nov-20 12:59 47.186065 -121.198179 104 15419ft 193kts
17-Nov-20 13:00 47.173219 -121.120773 104 15256ft 207kts
17-Nov-20 13:01 47.160827 -121.036427 110 14938ft 206kts
17-Nov-20 13:02 47.147293 -120.955670 110 14948ft 202kts
17-Nov-20 13:03 47.133929 -120.875759 110 14950ft 202kts
17-Nov-20 13:04 47.120061 -120.795911 115 14955ft 199kts
17-Nov-20 13:05 47.098294 -120.721845 121 14957ft 197kts
17-Nov-20 13:06 47.076446 -120.650886 121 14955ft 197kts
17-Nov-20 13:07 47.053736 -120.577189 121 14950ft 197kts
17-Nov-20 13:08 47.032894 -120.509531 121 14956ft 197kts
17-Nov-20 13:09 47.036287 -120.428953 75 14974ft 213kts
17-Nov-20 13:10 47.054954 -120.346411 75 14970ft 213kts
17-Nov-20 13:11 47.067001 -120.261869 83 14998ft 212kts
17-Nov-20 13:12 47.077374 -120.176826 84 14998ft 212kts
17-Nov-20 13:13 47.087489 -120.091259 84 14998ft 212kts
17-Nov-20 13:14 47.099736 -120.006375 77 15000ft 214kts
17-Nov-20 13:15 47.115816 -119.921949 78 14999ft 214kts
17-Nov-20 13:16 47.128651 -119.837081 82 15013ft 213kts
17-Nov-20 13:17 47.140538 -119.751574 82 15012ft 213kts
17-Nov-20 13:18 47.155369 -119.667628 77 15019ft 213kts
17-Nov-20 13:19 47.170526 -119.583176 79 15027ft 213kts
17-Nov-20 13:20 47.184677 -119.498406 80 15026ft 213kts
17-Nov-20 13:21 47.198412 -119.413814 80 15027ft 213kts
17-Nov-20 13:22 47.212218 -119.328950 80 15026ft 213kts
17-Nov-20 13:23 47.229175 -119.245026 76 15028ft 214kts
17-Nov-20 13:24 47.245185 -119.161023 77 15026ft 213kts
17-Nov-20 13:25 47.261978 -119.076450 77 15027ft 214kts
17-Nov-20 13:26 47.279605 -118.992583 76 15028ft 214kts
17-Nov-20 13:27 47.297425 -118.908556 76 15023ft 214kts
17-Nov-20 13:28 47.318233 -118.823164 70 14425ft 223kts
17-Nov-20 13:29 47.341481 -118.739428 72 13725ft 217kts
17-Nov-20 13:30 47.362755 -118.656623 74 13024ft 214kts
17-Nov-20 13:31 47.381897 -118.573730 76 12294ft 213kts
17-Nov-20 13:32 47.400219 -118.490002 76 11302ft 214kts
17-Nov-20 13:33 47.418511 -118.407653 76 10566ft 203kts
17-Nov-20 13:34 47.436186 -118.330021 76 10062ft 196kts
17-Nov-20 13:35 47.453836 -118.252984 76 9986ft 199kts
17-Nov-20 13:36 47.471998 -118.175652 75 9954ft 201kts
17-Nov-20 13:37 47.491383 -118.093910 75 9254ft 214kts
17-Nov-20 13:38 47.509669 -118.012736 75 8555ft 198kts
17-Nov-20 13:39 47.526230 -117.935511 73 7849ft 195kts
17-Nov-20 13:40 47.545544 -117.860141 72 7148ft 200kts
17-Nov-20 13:41 47.564667 -117.781994 76 6449ft 199kts
17-Nov-20 13:42 47.580929 -117.711444 76 5725ft 161kts
17-Nov-20 13:43 47.594086 -117.653039 76 5058ft 143kts
17-Nov-20 13:44 47.604677 -117.598667 77 4998ft 132kts
17-Nov-20 13:45 47.614699 -117.546600 77 5001ft 130kts
17-Nov-20 13:46 47.624507 -117.495912 77 4998ft 125kts
17-Nov-20 13:47 47.634787 -117.441964 77 4465ft 146kts
17-Nov-20 13:48 47.633082 -117.386245 150 3783ft 143kts
17-Nov-20 13:49 47.615869 -117.416773 278 3433ft 119kts
17-Nov-20 13:50 47.616701 -117.461911 261 2848ft 98kts
17-Nov-20 13:51 47.616832 -117.503874 266 2545ft 97kts
17-Nov-20 13:52 47.616703 -117.532233 184 2353ft 8kts
17-Nov-20 13:53 47.614767 -117.533229 230 2353ft 14kts
17-Nov-20 13:54 47.614187 -117.535177 264 2353ft 0kts
17-Nov-20 13:56 47.614187 -117.535177 264 2353ft 0kts
17-Nov-20 13:57 47.614187 -117.535177 264 2353ft 0kts

Navigation Log

Ident Type
Flight plan parsing failed, navigation log unavailable